EGVNEGYP

Guest
Details From EGVN - Brize Norton Ab
To EGYP - Mount Pleasant
Flight Number -
Tags Decoded
Created
Modified
Stats Distance 7,052 nm / 13,061 km
Max Altitude 0 ft / 0 m
Waypoints 3
Social Downloads 1
Likes 0
Share VATSIM

Download

Looking for another format? Having issues loading an existing format? Contact us
Advertisement - Login to hide

Notes

Decoded

Route

EGVN FHAW EGYP

ID Type Via Altitude Latitude Longitude Leg Dist Tot Dist Heading (true) Name
O EGVN APT - 0 ft / 0 m 51.74607˚ -1.60421˚ - 0 nm - -
FHAW APT - 0 ft / 0 m -7.96341˚ -14.40604˚ 3646 nm 3646 nm 195° / 189° -
O EGYP APT - 0 ft / 0 m -51.82436˚ -58.45114˚ 3405 nm 7052 nm 211° / 235° Mount Pleasant

Altitude Profile

Advertisement - Login to hide

Weather


0- 5 10 15 20 25 30 35+ Temperature / ° C

Clouds and Precipitation
Forecast for 2017-12-17 12:00 UTC. Updated an hour ago

Ground ~20,000 ft ~40,000 ft Winds

EGVN

Details ICAO EGVN (BZZ)
Name RAF Brize Norton
Region United Kingdom
Timezone Europe/London (UTC+0.0)
Stats Elevation 289 ft / 88 m (AMSL)
Location 51.749979° -1.582958°
Runways 1
Magnetic Variation 0.988° W

METAR

EGVN 170750Z 30001KT 7000 BR FEW035 BKN080 BKN130 M00/M01 Q1023 BECMG 9999 NSW

Decode

TAF

TAF EGVN 170737Z 1709/1809 20008KT 9999 SCT030 PROB30 TEMPO 1709/1711 SCT008 BECMG 1711/1714 BKN008 TEMPO 1712/1720 5000 RADZ SCT004 PROB40 TEMPO 1715/1720 2000 -DZ BKN002 BECMG 1720/1722 FEW030 PROB30 1803/1809 3000 BR SCT004

Decode

Departure Runways

ID Width Length Bearing (true) Bearing (mag) Surface Threshold Offset Overrun Length
08 184 ft / 56 m 10,016 ft / 3,053 m 73.42° 74.41° Asphalt 0 ft / 0 m 459 ft / 140 m
26 184 ft / 56 m 10,016 ft / 3,053 m 253.46° 254.45° Asphalt 0 ft / 0 m 577 ft / 176 m

EGYP

Details ICAO EGYP (MPN)
Name Mount Pleasant
Region United Kingdom
Timezone Atlantic/Stanley (UTC-3.0)
Stats Elevation 244 ft / 74 m (AMSL)
Location -51.820574° -58.448876°
Runways 2
Magnetic Variation 3.299° E

METAR

EGYP 170750Z 25018KT 9999 SCT010 BKN050 04/03 Q0992 GRN

Decode

TAF

TAF EGYP 170707Z 1709/1803 27015KT 9999 FEW030 BECMG 1709/1712 23020KT TEMPO 1709/1718 24025G35KT 4000 SHGS SCT013 BKN020CB BECMG 1718/1721 28020G30KT TEMPO 1721/1803 7000 RA BKN014 BECMG 1800/1803 32025G35KT

Decode

Destination Runways

ID Width Length Bearing (true) Bearing (mag) Surface Threshold Offset Overrun Length
05 82 ft / 25 m 4,974 ft / 1,516 m 55.18° 51.88° Asphalt 0 ft / 0 m 591 ft / 180 m
10 151 ft / 46 m 8,492 ft / 2,588 m 105.24° 101.94° Asphalt 0 ft / 0 m 591 ft / 180 m
23 82 ft / 25 m 4,974 ft / 1,516 m 235.16° 231.86° Asphalt 0 ft / 0 m 72 ft / 22 m
28 151 ft / 46 m 8,492 ft / 2,588 m 285.21° 281.91° Asphalt 0 ft / 0 m 591 ft / 180 m

Approach Navaids

Runway Type Ident Frequency Range Bearing (true) Bearing (mag) Slope Elevation
28 Localiser MP 111.90 MHz 18 nm / 33 km 285.67° 282.37° - 244 ft / 74 m (AMSL)
28 Glidescope MP 111.90 MHz 10 nm / 19 km 285.43° 282.13° 3.00° 244 ft / 74 m (AMSL)

Popular Alternatives